sensor_id;sensor_type;location;lat;lon;timestamp;pressure;altitude;pressure_sealevel;temperature;humidity
5753;BME280;2901;42.140;24.760;2023-03-18T00:00:44;100028.22;;;6.02;81.63
5753;BME280;2901;42.140;24.760;2023-03-18T00:03:10;100021.38;;;6.04;81.04
5753;BME280;2901;42.140;24.760;2023-03-18T00:05:36;100023.31;;;6.14;81.16
5753;BME280;2901;42.140;24.760;2023-03-18T00:08:03;100026.88;;;6.21;80.68
5753;BME280;2901;42.140;24.760;2023-03-18T00:10:29;100017.19;;;6.08;80.55
5753;BME280;2901;42.140;24.760;2023-03-18T00:12:54;100014.00;;;6.21;80.81
5753;BME280;2901;42.140;24.760;2023-03-18T00:15:20;100016.84;;;6.36;80.72
5753;BME280;2901;42.140;24.760;2023-03-18T00:17:46;100012.75;;;6.46;80.03
5753;BME280;2901;42.140;24.760;2023-03-18T00:20:13;100012.13;;;6.57;79.43
5753;BME280;2901;42.140;24.760;2023-03-18T00:22:41;100011.44;;;6.69;78.78
5753;BME280;2901;42.140;24.760;2023-03-18T00:25:09;100015.16;;;6.86;77.22
5753;BME280;2901;42.140;24.760;2023-03-18T00:27:35;100004.09;;;6.90;77.14
5753;BME280;2901;42.140;24.760;2023-03-18T00:30:02;100007.59;;;6.95;76.43
5753;BME280;2901;42.140;24.760;2023-03-18T00:32:29;100005.00;;;6.94;77.21
5753;BME280;2901;42.140;24.760;2023-03-18T00:34:55;100000.00;;;7.01;76.54
5753;BME280;2901;42.140;24.760;2023-03-18T00:37:22;100006.16;;;7.11;76.44
5753;BME280;2901;42.140;24.760;2023-03-18T00:40:10;99997.59;;;7.15;75.35
5753;BME280;2901;42.140;24.760;2023-03-18T00:42:41;99987.31;;;7.15;75.66
5753;BME280;2901;42.140;24.760;2023-03-18T00:45:14;99994.19;;;7.14;76.14
5753;BME280;2901;42.140;24.760;2023-03-18T00:47:41;99991.63;;;7.16;75.20
5753;BME280;2901;42.140;24.760;2023-03-18T00:50:07;99988.13;;;7.12;74.96
5753;BME280;2901;42.140;24.760;2023-03-18T00:52:33;99988.00;;;7.03;73.77
5753;BME280;2901;42.140;24.760;2023-03-18T00:54:59;99982.72;;;6.94;75.12
5753;BME280;2901;42.140;24.760;2023-03-18T00:57:25;99987.72;;;6.87;75.03
5753;BME280;2901;42.140;24.760;2023-03-18T00:59:51;99987.63;;;6.81;74.83
5753;BME280;2901;42.140;24.760;2023-03-18T01:02:16;99984.22;;;6.82;75.06
5753;BME280;2901;42.140;24.760;2023-03-18T01:04:42;99976.56;;;6.85;74.07
5753;BME280;2901;42.140;24.760;2023-03-18T01:07:09;99985.19;;;6.88;74.67
5753;BME280;2901;42.140;24.760;2023-03-18T01:09:36;99981.06;;;6.98;74.57
5753;BME280;2901;42.140;24.760;2023-03-18T01:12:03;99979.44;;;7.04;74.43
5753;BME280;2901;42.140;24.760;2023-03-18T01:14:29;99981.16;;;7.05;73.76
5753;BME280;2901;42.140;24.760;2023-03-18T01:16:54;99976.00;;;7.04;73.19
5753;BME280;2901;42.140;24.760;2023-03-18T01:19:20;99981.94;;;7.00;73.23
5753;BME280;2901;42.140;24.760;2023-03-18T01:21:45;99975.88;;;6.95;74.05
5753;BME280;2901;42.140;24.760;2023-03-18T01:24:11;99979.22;;;6.92;74.75
5753;BME280;2901;42.140;24.760;2023-03-18T01:26:37;99973.22;;;6.92;74.51
5753;BME280;2901;42.140;24.760;2023-03-18T01:29:03;99979.13;;;6.86;74.21
5753;BME280;2901;42.140;24.760;2023-03-18T01:31:29;99967.19;;;6.88;74.80
5753;BME280;2901;42.140;24.760;2023-03-18T01:33:55;99969.75;;;6.90;74.53
5753;BME280;2901;42.140;24.760;2023-03-18T01:36:20;99961.13;;;6.86;74.38
5753;BME280;2901;42.140;24.760;2023-03-18T01:38:46;99972.09;;;6.76;75.89
5753;BME280;2901;42.140;24.760;2023-03-18T01:41:12;99969.19;;;6.55;77.91
5753;BME280;2901;42.140;24.760;2023-03-18T01:43:40;99973.22;;;6.41;77.71
5753;BME280;2901;42.140;24.760;2023-03-18T01:46:48;99970.31;;;6.22;79.97
5753;BME280;2901;42.140;24.760;2023-03-18T01:49:24;99969.44;;;6.20;80.17
5753;BME280;2901;42.140;24.760;2023-03-18T01:51:55;99970.91;;;6.09;80.21
5753;BME280;2901;42.140;24.760;2023-03-18T01:54:22;99967.25;;;5.95;81.73
5753;BME280;2901;42.140;24.760;2023-03-18T01:56:49;99968.78;;;5.87;82.43
5753;BME280;2901;42.140;24.760;2023-03-18T01:59:17;99962.63;;;5.81;83.98
5753;BME280;2901;42.140;24.760;2023-03-18T02:04:48;99959.06;;;5.72;84.43
5753;BME280;2901;42.140;24.760;2023-03-18T02:07:17;99957.13;;;5.64;85.34
5753;BME280;2901;42.140;24.760;2023-03-18T02:09:44;99961.34;;;5.59;85.42
5753;BME280;2901;42.140;24.760;2023-03-18T02:12:12;99959.47;;;5.52;84.87
5753;BME280;2901;42.140;24.760;2023-03-18T02:14:39;99943.13;;;5.48;85.25
5753;BME280;2901;42.140;24.760;2023-03-18T02:17:09;99958.91;;;5.66;84.71
5753;BME280;2901;42.140;24.760;2023-03-18T02:19:41;99961.50;;;5.68;85.14
5753;BME280;2901;42.140;24.760;2023-03-18T02:28:06;99960.88;;;5.78;84.71
5753;BME280;2901;42.140;24.760;2023-03-18T02:30:39;99962.56;;;5.78;84.39
5753;BME280;2901;42.140;24.760;2023-03-18T02:33:06;99960.88;;;5.78;84.93
5753;BME280;2901;42.140;24.760;2023-03-18T02:35:33;99966.88;;;5.80;84.68
5753;BME280;2901;42.140;24.760;2023-03-18T02:37:59;99961.81;;;5.83;85.26
5753;BME280;2901;42.140;24.760;2023-03-18T02:40:28;99957.59;;;5.85;84.27
5753;BME280;2901;42.140;24.760;2023-03-18T02:42:54;99963.69;;;5.90;84.28
5753;BME280;2901;42.140;24.760;2023-03-18T02:45:49;99958.75;;;5.99;84.63
5753;BME280;2901;42.140;24.760;2023-03-18T02:48:14;99965.59;;;6.00;84.15
5753;BME280;2901;42.140;24.760;2023-03-18T02:50:41;99968.19;;;6.00;83.63
5753;BME280;2901;42.140;24.760;2023-03-18T02:53:07;99969.88;;;6.00;83.80
5753;BME280;2901;42.140;24.760;2023-03-18T02:55:35;99969.09;;;6.02;84.10
5753;BME280;2901;42.140;24.760;2023-03-18T02:58:00;99971.47;;;5.93;85.14
5753;BME280;2901;42.140;24.760;2023-03-18T03:00:26;99975.66;;;5.88;85.40
5753;BME280;2901;42.140;24.760;2023-03-18T03:02:51;99972.06;;;5.82;84.86
5753;BME280;2901;42.140;24.760;2023-03-18T03:05:16;99971.91;;;5.74;84.50
5753;BME280;2901;42.140;24.760;2023-03-18T03:07:42;99969.28;;;5.71;83.75
5753;BME280;2901;42.140;24.760;2023-03-18T03:10:08;99972.47;;;5.59;84.88
5753;BME280;2901;42.140;24.760;2023-03-18T03:12:33;99975.75;;;5.52;84.40
5753;BME280;2901;42.140;24.760;2023-03-18T03:15:03;99976.56;;;5.51;84.47
5753;BME280;2901;42.140;24.760;2023-03-18T03:17:28;99958.47;;;5.47;84.71
5753;BME280;2901;42.140;24.760;2023-03-18T03:19:54;99965.75;;;5.66;84.15
5753;BME280;2901;42.140;24.760;2023-03-18T03:22:19;99971.97;;;5.77;83.66
5753;BME280;2901;42.140;24.760;2023-03-18T03:24:44;99975.66;;;5.88;83.99
5753;BME280;2901;42.140;24.760;2023-03-18T03:27:10;99971.63;;;5.99;82.95
5753;BME280;2901;42.140;24.760;2023-03-18T03:29:36;99980.41;;;6.12;82.46
5753;BME280;2901;42.140;24.760;2023-03-18T03:32:02;99976.25;;;6.18;81.41
5753;BME280;2901;42.140;24.760;2023-03-18T03:34:28;99982.34;;;6.23;80.62
5753;BME280;2901;42.140;24.760;2023-03-18T03:36:53;99976.38;;;6.24;80.94
5753;BME280;2901;42.140;24.760;2023-03-18T03:39:18;99973.94;;;6.32;80.08
5753;BME280;2901;42.140;24.760;2023-03-18T03:41:44;99987.63;;;6.31;80.24
5753;BME280;2901;42.140;24.760;2023-03-18T03:44:09;99974.69;;;6.26;80.66
5753;BME280;2901;42.140;24.760;2023-03-18T03:46:35;99978.94;;;6.26;80.52
5753;BME280;2901;42.140;24.760;2023-03-18T03:49:00;99986.66;;;6.26;81.17
5753;BME280;2901;42.140;24.760;2023-03-18T03:51:26;99983.91;;;6.15;81.53
5753;BME280;2901;42.140;24.760;2023-03-18T03:53:52;99982.94;;;6.09;81.70
5753;BME280;2901;42.140;24.760;2023-03-18T03:56:18;99982.63;;;5.94;82.10
5753;BME280;2901;42.140;24.760;2023-03-18T03:58:43;99984.25;;;5.90;83.15
5753;BME280;2901;42.140;24.760;2023-03-18T04:01:10;99980.84;;;5.91;83.34
5753;BME280;2901;42.140;24.760;2023-03-18T04:03:35;99985.13;;;5.91;84.20
5753;BME280;2901;42.140;24.760;2023-03-18T04:06:01;99981.63;;;5.87;84.17
5753;BME280;2901;42.140;24.760;2023-03-18T04:08:26;99989.41;;;5.90;84.58
5753;BME280;2901;42.140;24.760;2023-03-18T04:10:51;99986.81;;;5.90;83.94
5753;BME280;2901;42.140;24.760;2023-03-18T04:13:17;99991.03;;;5.87;83.81
5753;BME280;2901;42.140;24.760;2023-03-18T04:15:43;99979.97;;;5.89;83.78
5753;BME280;2901;42.140;24.760;2023-03-18T04:18:09;99983.38;;;5.90;83.92
5753;BME280;2901;42.140;24.760;2023-03-18T04:20:36;99985.13;;;5.89;84.34
5753;BME280;2901;42.140;24.760;2023-03-18T04:23:03;99984.25;;;5.90;84.68
5753;BME280;2901;42.140;24.760;2023-03-18T04:25:29;99990.28;;;5.91;84.66
5753;BME280;2901;42.140;24.760;2023-03-18T04:27:55;99989.19;;;5.81;84.92
5753;BME280;2901;42.140;24.760;2023-03-18T04:30:20;99989.00;;;5.72;85.20
5753;BME280;2901;42.140;24.760;2023-03-18T04:32:48;99992.22;;;5.62;86.00
5753;BME280;2901;42.140;24.760;2023-03-18T04:35:15;99995.63;;;5.61;86.71
5753;BME280;2901;42.140;24.760;2023-03-18T04:37:40;99998.28;;;5.65;86.70
5753;BME280;2901;42.140;24.760;2023-03-18T04:40:06;99983.56;;;5.58;86.25
5753;BME280;2901;42.140;24.760;2023-03-18T04:42:32;99994.03;;;5.66;86.48
5753;BME280;2901;42.140;24.760;2023-03-18T04:44:58;99992.34;;;5.68;85.21
5753;BME280;2901;42.140;24.760;2023-03-18T04:47:23;99996.53;;;5.63;85.72
5753;BME280;2901;42.140;24.760;2023-03-18T04:49:48;99994.88;;;5.66;86.00
5753;BME280;2901;42.140;24.760;2023-03-18T04:52:14;100004.31;;;5.66;86.08
5753;BME280;2901;42.140;24.760;2023-03-18T04:54:40;100002.50;;;5.63;86.28
5753;BME280;2901;42.140;24.760;2023-03-18T04:57:07;99999.97;;;5.65;86.24
5753;BME280;2901;42.140;24.760;2023-03-18T04:59:32;100000.56;;;5.52;86.23
5753;BME280;2901;42.140;24.760;2023-03-18T05:01:57;100002.88;;;5.41;87.05
5753;BME280;2901;42.140;24.760;2023-03-18T05:04:24;99998.06;;;5.17;87.09
5753;BME280;2901;42.140;24.760;2023-03-18T05:06:50;99997.22;;;5.17;87.63
5753;BME280;2901;42.140;24.760;2023-03-18T05:09:16;100004.13;;;5.19;87.87
5753;BME280;2901;42.140;24.760;2023-03-18T05:11:42;100005.00;;;5.20;87.29
5753;BME280;2901;42.140;24.760;2023-03-18T05:14:07;100003.06;;;5.11;87.99
5753;BME280;2901;42.140;24.760;2023-03-18T05:16:33;100009.69;;;5.02;88.96
5753;BME280;2901;42.140;24.760;2023-03-18T05:18:58;99998.53;;;5.01;89.34
5753;BME280;2901;42.140;24.760;2023-03-18T05:21:23;100001.97;;;5.02;89.15
5753;BME280;2901;42.140;24.760;2023-03-18T05:23:49;100010.66;;;5.07;89.05
5753;BME280;2901;42.140;24.760;2023-03-18T05:26:15;100010.75;;;5.11;88.56
5753;BME280;2901;42.140;24.760;2023-03-18T05:28:41;100004.13;;;5.21;88.21
5753;BME280;2901;42.140;24.760;2023-03-18T05:31:06;100004.25;;;5.26;88.14
5753;BME280;2901;42.140;24.760;2023-03-18T05:33:32;100003.50;;;5.30;88.15
5753;BME280;2901;42.140;24.760;2023-03-18T05:35:57;100013.97;;;5.39;87.42
5753;BME280;2901;42.140;24.760;2023-03-18T05:38:23;100012.47;;;5.48;87.09
5753;BME280;2901;42.140;24.760;2023-03-18T05:40:48;100016.53;;;5.40;87.00
5753;BME280;2901;42.140;24.760;2023-03-18T05:43:14;100021.66;;;5.39;88.06
5753;BME280;2901;42.140;24.760;2023-03-18T05:45:40;100014.03;;;5.42;88.19
5753;BME280;2901;42.140;24.760;2023-03-18T05:48:06;100015.09;;;5.51;88.05
5753;BME280;2901;42.140;24.760;2023-03-18T05:50:34;100016.34;;;5.70;86.47
5753;BME280;2901;42.140;24.760;2023-03-18T05:53:00;100014.72;;;5.73;85.70
5753;BME280;2901;42.140;24.760;2023-03-18T05:55:27;100017.44;;;5.81;85.31
5753;BME280;2901;42.140;24.760;2023-03-18T05:57:54;100016.56;;;5.79;84.51
5753;BME280;2901;42.140;24.760;2023-03-18T06:00:20;100019.03;;;5.74;84.79
5753;BME280;2901;42.140;24.760;2023-03-18T06:02:46;100019.16;;;5.81;85.14
5753;BME280;2901;42.140;24.760;2023-03-18T06:05:12;100021.75;;;5.82;84.46
5753;BME280;2901;42.140;24.760;2023-03-18T06:07:37;100022.41;;;5.73;84.59
5753;BME280;2901;42.140;24.760;2023-03-18T06:10:04;100028.13;;;5.59;85.66
5753;BME280;2901;42.140;24.760;2023-03-18T06:12:29;100019.66;;;5.64;85.22
5753;BME280;2901;42.140;24.760;2023-03-18T06:14:55;100016.09;;;5.58;85.78
5753;BME280;2901;42.140;24.760;2023-03-18T06:17:20;99996.25;;;5.51;85.90
5753;BME280;2901;42.140;24.760;2023-03-18T06:19:46;100025.31;;;5.48;85.97
5753;BME280;2901;42.140;24.760;2023-03-18T06:22:12;100015.41;;;5.28;87.92
5753;BME280;2901;42.140;24.760;2023-03-18T06:24:38;100010.50;;;5.37;87.56
5753;BME280;2901;42.140;24.760;2023-03-18T06:27:03;100012.63;;;5.56;87.60
5753;BME280;2901;42.140;24.760;2023-03-18T06:29:28;100014.22;;;5.51;87.16
5753;BME280;2901;42.140;24.760;2023-03-18T06:31:54;100022.78;;;5.50;87.25
5753;BME280;2901;42.140;24.760;2023-03-18T06:34:20;100009.84;;;5.45;87.21
5753;BME280;2901;42.140;24.760;2023-03-18T06:36:45;100018.28;;;5.41;87.00
5753;BME280;2901;42.140;24.760;2023-03-18T06:39:11;100014.78;;;5.36;87.47
5753;BME280;2901;42.140;24.760;2023-03-18T06:41:38;100008.91;;;5.42;87.64
5753;BME280;2901;42.140;24.760;2023-03-18T06:44:04;100006.69;;;5.58;87.08
5753;BME280;2901;42.140;24.760;2023-03-18T06:46:30;99999.69;;;5.90;85.52
5753;BME280;2901;42.140;24.760;2023-03-18T06:48:56;100006.78;;;6.03;84.27
5753;BME280;2901;42.140;24.760;2023-03-18T06:51:21;100007.09;;;6.18;83.36
5753;BME280;2901;42.140;24.760;2023-03-18T06:53:46;100004.72;;;6.29;82.79
5753;BME280;2901;42.140;24.760;2023-03-18T06:56:12;100001.31;;;6.30;82.77
5753;BME280;2901;42.140;24.760;2023-03-18T06:58:40;99998.06;;;6.39;82.56
5753;BME280;2901;42.140;24.760;2023-03-18T07:01:06;100000.63;;;6.39;81.61
5753;BME280;2901;42.140;24.760;2023-03-18T07:03:32;99998.06;;;6.40;80.65
5753;BME280;2901;42.140;24.760;2023-03-18T07:05:58;100000.91;;;6.54;80.66
5753;BME280;2901;42.140;24.760;2023-03-18T07:08:23;99999.25;;;6.59;80.39
5753;BME280;2901;42.140;24.760;2023-03-18T07:10:52;100007.78;;;6.55;79.99
5753;BME280;2901;42.140;24.760;2023-03-18T07:13:18;100001.28;;;6.75;79.66
5753;BME280;2901;42.140;24.760;2023-03-18T07:15:44;99996.34;;;6.89;77.89
5753;BME280;2901;42.140;24.760;2023-03-18T07:18:09;100003.50;;;7.06;78.25
5753;BME280;2901;42.140;24.760;2023-03-18T07:20:35;99993.44;;;7.24;77.67
5753;BME280;2901;42.140;24.760;2023-03-18T07:23:01;99996.97;;;7.31;76.44
5753;BME280;2901;42.140;24.760;2023-03-18T07:25:27;99997.94;;;7.38;76.11
5753;BME280;2901;42.140;24.760;2023-03-18T07:27:54;99980.03;;;7.44;76.26
5753;BME280;2901;42.140;24.760;2023-03-18T07:30:20;99988.75;;;7.55;75.83
5753;BME280;2901;42.140;24.760;2023-03-18T07:32:46;99974.22;;;7.60;75.24
5753;BME280;2901;42.140;24.760;2023-03-18T07:35:12;99983.13;;;7.88;74.31
5753;BME280;2901;42.140;24.760;2023-03-18T07:37:40;99986.06;;;8.13;73.53
5753;BME280;2901;42.140;24.760;2023-03-18T07:40:07;99982.72;;;8.25;72.47
5753;BME280;2901;42.140;24.760;2023-03-18T07:42:33;99981.13;;;8.34;71.65
5753;BME280;2901;42.140;24.760;2023-03-18T07:44:58;99982.81;;;8.31;70.96
5753;BME280;2901;42.140;24.760;2023-03-18T07:47:24;99986.81;;;8.06;71.49
5753;BME280;2901;42.140;24.760;2023-03-18T07:49:49;99983.25;;;7.95;71.72
5753;BME280;2901;42.140;24.760;2023-03-18T07:52:16;99989.25;;;7.93;72.77
5753;BME280;2901;42.140;24.760;2023-03-18T07:54:42;99993.41;;;7.84;73.97
5753;BME280;2901;42.140;24.760;2023-03-18T07:57:08;99992.72;;;7.96;73.05
5753;BME280;2901;42.140;24.760;2023-03-18T07:59:35;99986.56;;;7.85;74.15
5753;BME280;2901;42.140;24.760;2023-03-18T08:02:02;99986.44;;;7.77;73.77
5753;BME280;2901;42.140;24.760;2023-03-18T08:04:30;99995.97;;;7.80;73.52
5753;BME280;2901;42.140;24.760;2023-03-18T08:06:55;99998.50;;;7.77;74.01
5753;BME280;2901;42.140;24.760;2023-03-18T08:09:22;100001.00;;;7.74;74.71
5753;BME280;2901;42.140;24.760;2023-03-18T08:11:48;100003.84;;;7.94;73.25
5753;BME280;2901;42.140;24.760;2023-03-18T08:14:13;99983.22;;;7.92;72.82
5753;BME280;2901;42.140;24.760;2023-03-18T08:16:39;100013.53;;;8.11;73.57
5753;BME280;2901;42.140;24.760;2023-03-18T08:19:04;100010.94;;;8.10;72.89
5753;BME280;2901;42.140;24.760;2023-03-18T08:21:30;100014.28;;;8.04;72.84
5753;BME280;2901;42.140;24.760;2023-03-18T08:23:56;100007.47;;;8.06;73.11
5753;BME280;2901;42.140;24.760;2023-03-18T08:26:21;100007.63;;;8.20;72.20
5753;BME280;2901;42.140;24.760;2023-03-18T08:28:47;100011.97;;;8.25;71.85
5753;BME280;2901;42.140;24.760;2023-03-18T08:31:12;100010.41;;;8.38;71.37
5753;BME280;2901;42.140;24.760;2023-03-18T08:33:38;100006.25;;;8.49;70.78
5753;BME280;2901;42.140;24.760;2023-03-18T08:36:04;100005.44;;;8.55;70.83
5753;BME280;2901;42.140;24.760;2023-03-18T08:38:30;100015.66;;;8.47;71.57
5753;BME280;2901;42.140;24.760;2023-03-18T08:40:56;100009.66;;;8.50;71.36
5753;BME280;2901;42.140;24.760;2023-03-18T08:43:22;99997.72;;;8.61;70.88
5753;BME280;2901;42.140;24.760;2023-03-18T08:45:54;100003.06;;;8.80;69.67
5753;BME280;2901;42.140;24.760;2023-03-18T08:48:20;100004.13;;;9.02;68.13
5753;BME280;2901;42.140;24.760;2023-03-18T08:50:46;100012.78;;;9.10;66.60
5753;BME280;2901;42.140;24.760;2023-03-18T08:53:12;100007.69;;;9.18;66.50
5753;BME280;2901;42.140;24.760;2023-03-18T08:55:37;100010.47;;;9.47;64.98
5753;BME280;2901;42.140;24.760;2023-03-18T08:58:04;100018.25;;;9.56;63.68
5753;BME280;2901;42.140;24.760;2023-03-18T09:00:31;100017.47;;;9.66;63.74
5753;BME280;2901;42.140;24.760;2023-03-18T09:02:56;100014.91;;;9.72;63.47
5753;BME280;2901;42.140;24.760;2023-03-18T09:05:22;100012.41;;;9.84;62.69
5753;BME280;2901;42.140;24.760;2023-03-18T09:07:48;100024.47;;;9.83;62.87
5753;BME280;2901;42.140;24.760;2023-03-18T09:10:14;100026.16;;;9.81;63.21
5753;BME280;2901;42.140;24.760;2023-03-18T09:12:41;100031.44;;;10.00;62.40
5753;BME280;2901;42.140;24.760;2023-03-18T09:15:08;100030.56;;;10.02;61.02
5753;BME280;2901;42.140;24.760;2023-03-18T09:17:35;100028.81;;;9.95;61.18
5753;BME280;2901;42.140;24.760;2023-03-18T09:20:08;100025.34;;;9.87;61.68
5753;BME280;2901;42.140;24.760;2023-03-18T09:22:34;100024.50;;;9.94;61.83
5753;BME280;2901;42.140;24.760;2023-03-18T09:25:00;100036.69;;;10.15;61.83
5753;BME280;2901;42.140;24.760;2023-03-18T09:27:26;100041.88;;;10.21;60.83
5753;BME280;2901;42.140;24.760;2023-03-18T09:29:52;100035.00;;;10.21;60.52
5753;BME280;2901;42.140;24.760;2023-03-18T09:32:17;100044.56;;;10.40;59.80
5753;BME280;2901;42.140;24.760;2023-03-18T09:34:43;100035.13;;;10.62;58.72
5753;BME280;2901;42.140;24.760;2023-03-18T09:37:09;100035.13;;;10.83;57.26
5753;BME280;2901;42.140;24.760;2023-03-18T09:39:35;100036.88;;;11.07;55.29
5753;BME280;2901;42.140;24.760;2023-03-18T09:44:37;100048.97;;;11.35;55.54
5753;BME280;2901;42.140;24.760;2023-03-18T09:52:49;100063.66;;;11.12;56.03
5753;BME280;2901;42.140;24.760;2023-03-18T09:57:56;100062.78;;;11.07;57.63
5753;BME280;2901;42.140;24.760;2023-03-18T10:00:35;100059.34;;;11.08;58.55
5753;BME280;2901;42.140;24.760;2023-03-18T10:06:07;100061.94;;;11.11;56.42
5753;BME280;2901;42.140;24.760;2023-03-18T10:11:18;100061.06;;;11.18;55.82
5753;BME280;2901;42.140;24.760;2023-03-18T10:19:45;100061.91;;;11.46;56.14
5753;BME280;2901;42.140;24.760;2023-03-18T10:22:25;100067.97;;;11.59;56.56
5753;BME280;2901;42.140;24.760;2023-03-18T10:28:04;100069.72;;;11.72;55.15
5753;BME280;2901;42.140;24.760;2023-03-18T10:30:51;100074.88;;;11.67;54.48
5753;BME280;2901;42.140;24.760;2023-03-18T10:36:17;100076.63;;;11.71;53.57
5753;BME280;2901;42.140;24.760;2023-03-18T10:38:48;100076.59;;;11.85;53.10
5753;BME280;2901;42.140;24.760;2023-03-18T10:41:20;100074.88;;;11.88;51.48
5753;BME280;2901;42.140;24.760;2023-03-18T10:43:46;100066.19;;;11.94;50.52
5753;BME280;2901;42.140;24.760;2023-03-18T10:46:15;100054.91;;;12.04;50.45
5753;BME280;2901;42.140;24.760;2023-03-18T10:48:52;100061.59;;;12.57;50.86
5753;BME280;2901;42.140;24.760;2023-03-18T10:51:30;100063.06;;;12.97;49.53
5753;BME280;2901;42.140;24.760;2023-03-18T10:56:50;100056.03;;;13.11;46.50
5753;BME280;2901;42.140;24.760;2023-03-18T10:59:20;100066.34;;;13.26;44.89
5753;BME280;2901;42.140;24.760;2023-03-18T11:02:12;100057.59;;;13.36;42.98
5753;BME280;2901;42.140;24.760;2023-03-18T11:04:46;100058.53;;;13.25;43.99
5753;BME280;2901;42.140;24.760;2023-03-18T11:07:17;100055.00;;;13.35;43.53
5753;BME280;2901;42.140;24.760;2023-03-18T11:09:45;100067.41;;;12.96;44.50
5753;BME280;2901;42.140;24.760;2023-03-18T11:12:25;100062.47;;;12.57;47.02
5753;BME280;2901;42.140;24.760;2023-03-18T11:14:52;100057.16;;;12.72;46.02
5753;BME280;2901;42.140;24.760;2023-03-18T11:17:25;100056.25;;;12.78;47.07
5753;BME280;2901;42.140;24.760;2023-03-18T11:22:36;100044.88;;;12.95;46.62
5753;BME280;2901;42.140;24.760;2023-03-18T11:25:16;100053.00;;;12.47;47.81
5753;BME280;2901;42.140;24.760;2023-03-18T11:27:49;100048.66;;;12.41;49.23
5753;BME280;2901;42.140;24.760;2023-03-18T11:33:02;100042.47;;;12.65;48.05
5753;BME280;2901;42.140;24.760;2023-03-18T11:35:35;100043.97;;;12.98;47.23
5753;BME280;2901;42.140;24.760;2023-03-18T11:38:03;100050.91;;;12.99;46.82
5753;BME280;2901;42.140;24.760;2023-03-18T11:40:29;100043.31;;;12.72;47.16
5753;BME280;2901;42.140;24.760;2023-03-18T11:43:01;100045.91;;;12.73;47.19
5753;BME280;2901;42.140;24.760;2023-03-18T11:45:43;100037.34;;;12.52;47.81
5753;BME280;2901;42.140;24.760;2023-03-18T11:48:17;100045.09;;;12.64;46.66
5753;BME280;2901;42.140;24.760;2023-03-18T11:59:04;100039.19;;;13.56;43.76
5753;BME280;2901;42.140;24.760;2023-03-18T12:04:56;100033.38;;;13.28;44.28
5753;BME280;2901;42.140;24.760;2023-03-18T12:10:30;100019.00;;;13.79;43.10
5753;BME280;2901;42.140;24.760;2023-03-18T12:18:53;100018.34;;;14.29;41.27
5753;BME280;2901;42.140;24.760;2023-03-18T12:21:34;100013.94;;;14.39;41.48
5753;BME280;2901;42.140;24.760;2023-03-18T12:27:01;100020.03;;;14.38;42.16
5753;BME280;2901;42.140;24.760;2023-03-18T12:32:18;100013.72;;;14.52;40.91
5753;BME280;2901;42.140;24.760;2023-03-18T12:34:52;100016.22;;;14.60;40.63
5753;BME280;2901;42.140;24.760;2023-03-18T12:46:13;99997.78;;;14.74;40.46
5753;BME280;2901;42.140;24.760;2023-03-18T12:49:16;99992.38;;;14.86;39.88
5753;BME280;2901;42.140;24.760;2023-03-18T12:52:06;99981.94;;;14.87;39.50
5753;BME280;2901;42.140;24.760;2023-03-18T12:54:40;99977.56;;;14.88;39.65
5753;BME280;2901;42.140;24.760;2023-03-18T12:57:16;99976.00;;;14.78;38.90
5753;BME280;2901;42.140;24.760;2023-03-18T12:59:47;99978.09;;;14.54;39.27
5753;BME280;2901;42.140;24.760;2023-03-18T13:04:59;99976.75;;;14.23;40.86
5753;BME280;2901;42.140;24.760;2023-03-18T13:07:36;99967.38;;;14.12;40.99
5753;BME280;2901;42.140;24.760;2023-03-18T13:10:20;99976.09;;;14.09;41.23
5753;BME280;2901;42.140;24.760;2023-03-18T13:12:48;99968.13;;;14.20;40.92
5753;BME280;2901;42.140;24.760;2023-03-18T13:18:08;99969.47;;;13.85;41.22
5753;BME280;2901;42.140;24.760;2023-03-18T13:20:38;99972.19;;;13.75;41.46
5753;BME280;2901;42.140;24.760;2023-03-18T13:26:00;99961.31;;;13.39;42.73
5753;BME280;2901;42.140;24.760;2023-03-18T13:31:49;99952.59;;;13.42;42.05
5753;BME280;2901;42.140;24.760;2023-03-18T13:43:10;99940.59;;;13.27;42.02
5753;BME280;2901;42.140;24.760;2023-03-18T13:45:39;99939.81;;;13.22;41.79
5753;BME280;2901;42.140;24.760;2023-03-18T13:48:12;99953.66;;;13.26;42.32
5753;BME280;2901;42.140;24.760;2023-03-18T13:50:42;99945.88;;;13.21;42.33
5753;BME280;2901;42.140;24.760;2023-03-18T13:53:29;99949.66;;;12.85;43.80
5753;BME280;2901;42.140;24.760;2023-03-18T13:58:24;99940.28;;;12.66;42.78
5753;BME280;2901;42.140;24.760;2023-03-18T14:03:26;99943.84;;;12.52;42.69
5753;BME280;2901;42.140;24.760;2023-03-18T14:13:39;99939.16;;;12.96;41.24
5753;BME280;2901;42.140;24.760;2023-03-18T14:16:09;99929.88;;;12.71;41.47
5753;BME280;2901;42.140;24.760;2023-03-18T14:18:35;99942.91;;;12.63;41.23
5753;BME280;2901;42.140;24.760;2023-03-18T14:21:04;99942.84;;;12.69;41.26
5753;BME280;2901;42.140;24.760;2023-03-18T14:23:35;99932.47;;;12.69;40.66
5753;BME280;2901;42.140;24.760;2023-03-18T14:26:05;99927.13;;;12.87;40.35
5753;BME280;2901;42.140;24.760;2023-03-18T14:28:41;99929.75;;;12.83;39.99
5753;BME280;2901;42.140;24.760;2023-03-18T14:31:14;99924.59;;;12.80;39.87
5753;BME280;2901;42.140;24.760;2023-03-18T14:33:50;99924.44;;;12.95;40.65
5753;BME280;2901;42.140;24.760;2023-03-18T14:36:16;99906.97;;;13.08;40.37
5753;BME280;2901;42.140;24.760;2023-03-18T14:39:03;99913.75;;;13.27;39.39
5753;BME280;2901;42.140;24.760;2023-03-18T14:41:40;99917.91;;;13.41;39.79
5753;BME280;2901;42.140;24.760;2023-03-18T14:47:35;99924.78;;;13.50;39.91
5753;BME280;2901;42.140;24.760;2023-03-18T14:50:06;99922.09;;;13.55;39.46
5753;BME280;2901;42.140;24.760;2023-03-18T14:52:40;99923.81;;;13.57;39.35
5753;BME280;2901;42.140;24.760;2023-03-18T14:55:16;99913.47;;;13.52;39.32
5753;BME280;2901;42.140;24.760;2023-03-18T14:57:43;99908.38;;;13.40;39.33
5753;BME280;2901;42.140;24.760;2023-03-18T15:00:20;99905.00;;;13.35;40.14
5753;BME280;2901;42.140;24.760;2023-03-18T15:02:48;99906.78;;;13.30;40.68
5753;BME280;2901;42.140;24.760;2023-03-18T15:05:17;99906.03;;;13.18;41.12
5753;BME280;2901;42.140;24.760;2023-03-18T15:07:50;99908.75;;;13.07;40.87
5753;BME280;2901;42.140;24.760;2023-03-18T15:10:24;99911.50;;;12.90;41.03
5753;BME280;2901;42.140;24.760;2023-03-18T15:13:01;99910.72;;;12.78;41.74
5753;BME280;2901;42.140;24.760;2023-03-18T15:15:29;99915.97;;;12.72;42.39